Предлагаем Вашему вниманию английскую версию страницы: AUTOTAF.ME 23955 - aviation weather forecast Aleksandrovskoe

AUTOTAF 23955 - авиапрогноз Александровское

Сегодня рассвет 01:09 UTC, восход солнца 01:53 UTC,
местный полдень 06:32 UTC, заход солнца 11:11 UTC,
наступление темноты 11:55 UTC.

Краткий прогноз 23955 на 9 часов

AUTOTAF.ME 23955 242000Z 2421/2506 17003MPS 3000 BR BKN005     
  FM250300 14005MPS 9999 BKN010 
  BECMG 2504/2506 14009MPS

Детальный прогноз 23955 на 24 часа

AUTOTAF.ME 23955 242000Z 2421/2521 17003MPS 3000 BR BKN005 TXM04/2509Z TNM09/2421Z   
  FM250300 14005MPS 9999 BKN010 
  BECMG 2504/2506 14009MPS  
  BECMG 2507/2509 BKN003  
  FM251200 14007G12MPS 1500 SN BR BKN002 
  FM251500 14006G11MPS 2000 SN BR OVC002 
  FM251800 13006MPS 3000 -SN BR OVC002

Подробный табличный прогноз

Время (UTC) miniAUTOTAF на 3 ч WX FZLVL
M AGL
ICE TURB Т
(°С)
Тd
(°С)
f(%) QNH
(гПа)
WIND/T
18 19003MPS 2000 BR BKN005 BR SFC MOD FL10/FL20 -10 -11 93 1022 ...
21 17003MPS 3000 BR BKN005 BR SFC MOD FL120/FL130 MOD FL40/FL50 -9 -10 93 1022 ...
25.10.2020
00 15004MPS 3000 BR BKN005 BR SFC MOD FL120/FL130 -9 -10 93 1021 ...
03 14005MPS 9999 BKN010 SFC FBL FL10/FL150 -7 -9 91 1020 ...
06 14009MPS 9999 BKN009 SFC MOD FL10/FL170 MOD SFC/FL20 -5 -7 83 1018 ...
09 14010G15MPS 9999 BKN003 SFC MOD FL170/FL180 MOD SFC/FL20 -4 -5 93 1016 ...
12 14007G12MPS 1500 SN BR BKN002 SN BR SFC MOD FL10/FL20 -4 -4 95 1015 ...
15 14006G11MPS 2000 SN BR OVC002 SN BR SFC MOD FL10/FL20 -4 -5 95 1014 ...
18 13006MPS 3000 -SN BR OVC002 -SN BR SFC MOD FL10/FL20 -4 -5 95 1013 ...
21 12005G10MPS 3000 -SN BR BKN002 -SN BR SFC MOD FL10/FL20 -4 -4 96 1012 ...
26.10.2020
00 11004MPS 3000 -SN BR OVC001 -SN BR SFC MOD FL10/FL20 -4 -4 96 1012 ...
03 10003MPS 1000 BR BKN001 BR SFC MOD FL10/FL170 -6 -6 97 1011 ...
06 10004MPS 5000 BR BKN003 BR SFC MOD FL10/FL150 MOD SFC/FL20 -3 -4 93 1012 ...
09 10005MPS 5000 BR BKN004 BR SFC MOD FL10/FL20 MOD SFC/FL20 -2 -3 92 1012 ...
12 08004MPS 3500 BR OVC002 BR SFC MOD FL10/FL20 MOD SFC/FL20 -2 -3 94 1013 ...
15 08005G10MPS 1500 BR OVC003 BR SFC MOD FL10/FL20 -2 -3 93 1013 ...


Широта 60.4°, долгота 77.9°, высота 48 м абс.
Средняя высота рельефа местности 38 м абс.
Прогнозы обновляются четыре раза в сутки: в 02, 08, 14, 20 ч всемирного времени.


Выбрать прогноз по другой модели Александровское
Онлайн-сводка гроз по Александровское (для РФ и ближнего зарубежья)
Карта фактических гроз в окрестностях Александровское
Динамические прогностические карты (ventusky.com)
Прогностическая карта высоты нижней границы облаков по Александровское (windy.com)
Выбрать другой город

Прогноз предназначен для личного научно-познавательного использования частными лицами
и не предназначен для принятия важных решений и выполнения реальных полётов воздушных судов

При копировании или ином использовании любых материалов данного сайта ссылка на © meteocenter.asia обязательна.

0.97/1.5